Terminal Aerodrome Forecast
Issued by NWS

Home | Current Version | Previous Version | Text Only | Print | Product List | Glossary On
Versions: 1 2 3 4 5 6 7 8 9 10 11 12 13 14 15 16 17 18 19 20 21 22 23 24 25 26
000
FTUS44 KLIX 142322
TAFHDC
TAF
KHDC 142322Z 1500/1524 14007KT P6SM BKN050
     FM150600 13006KT P6SM OVC020
     FM151500 17010KT 5SM SHRA SCT010 OVC025
     FM151900 21010KT 5SM SHRA SCT025 OVC040
      TEMPO 1519/1523 2SM TSRA BKN010CB
     FM152300 26008KT P6SM OVC030=

USA.gov is the U.S. government's official web portal to all federal, state and local government web resources and services.